createdAt,value
2019-06-07T05:03:11.904Z,57.50
2019-06-07T05:03:45.820Z,59.30
2019-06-07T05:04:22.628Z,59.00
2019-06-07T05:04:55.116Z,58.70
2019-06-07T05:05:29.269Z,58.60
2019-06-07T05:06:03.607Z,58.70
2019-06-07T05:06:39.294Z,58.30
2019-06-07T05:07:10.857Z,58.30
2019-06-07T05:08:43.785Z,58.30
2019-06-07T05:09:16.909Z,58.20
2019-06-07T05:09:49.840Z,58.10
2019-06-07T05:10:22.407Z,58.20
2019-06-07T05:10:55.356Z,58.10
2019-06-07T05:11:28.234Z,58.10
2019-06-07T05:12:01.120Z,58.00
2019-06-07T05:12:36.061Z,58.00
2019-06-07T05:13:08.279Z,58.00
2019-06-07T05:13:43.969Z,58.00
2019-06-07T05:14:15.503Z,58.20
2019-06-07T05:14:48.456Z,58.20
2019-06-07T05:15:21.554Z,58.10
2019-06-07T05:15:54.419Z,58.00
2019-06-07T05:16:26.928Z,57.90
2019-06-07T05:16:59.821Z,58.60
2019-06-07T05:17:33.246Z,57.80
2019-06-07T05:18:06.970Z,57.80
2019-06-07T05:18:42.649Z,58.00
2019-06-07T05:19:14.463Z,58.00
2019-06-07T05:19:47.407Z,58.10
2019-06-07T05:20:19.915Z,58.10
2019-06-07T05:20:52.863Z,58.00
2019-06-07T05:21:46.410Z,57.90
2019-06-07T05:22:04.864Z,58.10
2019-06-07T05:22:40.775Z,58.00
2019-06-07T05:23:11.356Z,58.00
2019-06-07T05:24:11.016Z,58.00
2019-06-07T05:24:18.498Z,57.90
2019-06-07T05:24:51.402Z,57.70
2019-06-07T05:25:24.338Z,57.70
2019-06-07T05:25:56.922Z,57.80
2019-06-07T05:26:30.518Z,57.80
2019-06-07T05:27:03.555Z,58.10
2019-06-07T05:27:38.369Z,58.00
2019-06-07T05:28:10.632Z,57.90
2019-06-07T05:28:45.129Z,57.90
2019-06-07T05:29:18.020Z,57.80
2019-06-07T05:30:08.761Z,57.70
2019-06-07T05:31:07.994Z,57.70
2019-06-07T05:31:44.919Z,57.70
2019-06-07T05:32:15.483Z,57.70
2019-06-07T05:32:48.477Z,57.60
2019-06-07T05:33:21.340Z,57.60
2019-06-07T05:33:54.201Z,57.70
2019-06-07T05:34:26.691Z,57.60
2019-06-07T05:34:59.718Z,57.50
2019-06-07T05:35:33.128Z,57.50
2019-06-07T05:36:06.236Z,57.60
2019-06-07T05:36:41.753Z,57.90
2019-06-07T05:37:13.491Z,57.70
2019-06-07T05:37:46.373Z,57.60
2019-06-07T05:38:19.347Z,57.60
2019-06-07T05:38:51.842Z,57.70
2019-06-07T05:39:24.732Z,57.80
2019-06-07T05:39:57.603Z,57.90
2019-06-07T05:40:42.972Z,57.90
2019-06-07T05:41:14.015Z,58.10
2019-06-07T05:41:46.966Z,58.20
2019-06-07T05:42:19.838Z,58.30
2019-06-07T05:42:52.339Z,58.20
2019-06-07T05:43:26.158Z,58.40
2019-06-07T05:44:11.993Z,58.50
2019-06-07T05:44:34.109Z,58.60
2019-06-07T05:45:08.864Z,59.30
2019-06-07T05:45:44.918Z,58.90
2019-06-07T05:46:16.004Z,58.90
2019-06-07T05:46:48.899Z,58.80
2019-06-07T05:47:25.441Z,59.00
2019-06-07T05:47:58.087Z,59.10
2019-06-07T05:48:31.819Z,59.20
2019-06-07T05:49:04.822Z,59.40
2019-06-07T05:49:39.582Z,59.40
2019-06-07T05:50:38.668Z,59.20
2019-06-07T05:50:56.066Z,59.10
2019-06-07T05:51:21.261Z,58.90
2019-06-07T05:51:53.775Z,58.90
2019-06-07T05:52:26.752Z,58.80
2019-06-07T05:52:59.711Z,58.80
2019-06-07T05:53:32.919Z,59.10
2019-06-07T05:54:08.294Z,59.30
2019-06-07T05:54:43.188Z,59.40
2019-06-07T05:55:15.826Z,59.30
2019-06-07T05:55:48.318Z,59.30
2019-06-07T05:56:21.228Z,59.30
2019-06-07T05:56:54.095Z,59.40
2019-06-07T05:57:26.995Z,59.40
2019-06-07T05:57:59.664Z,59.40
2019-06-07T05:58:32.810Z,59.30
2019-06-07T05:59:05.873Z,59.30
2019-06-07T05:59:41.633Z,59.20
2019-06-07T06:00:12.967Z,59.10
2019-06-07T06:00:47.613Z,58.90
2019-06-07T06:01:42.790Z,58.90
2019-06-07T06:02:02.717Z,59.00
2019-06-07T06:02:29.240Z,59.20
2019-06-07T06:03:05.855Z,59.10
2019-06-07T06:03:37.876Z,59.00
2019-06-07T06:04:11.075Z,59.00
2019-06-07T06:04:48.790Z,59.00
2019-06-07T06:05:33.361Z,59.10
2019-06-07T06:05:55.269Z,59.10
2019-06-07T06:06:27.477Z,59.30
2019-06-07T06:06:59.955Z,59.40
2019-06-07T06:07:34.763Z,59.60
2019-06-07T06:08:07.458Z,59.70
2019-06-07T06:08:42.473Z,59.70
2019-06-07T06:09:14.593Z,59.60
2019-06-07T06:09:47.792Z,59.30
2019-06-07T06:10:20.699Z,59.30
2019-06-07T06:10:53.576Z,59.50
2019-06-07T06:11:43.338Z,59.50
2019-06-07T06:12:02.518Z,59.40
2019-06-07T06:12:42.168Z,59.50
2019-06-07T06:13:09.614Z,59.50
2019-06-07T06:14:01.512Z,59.40
2019-06-07T06:14:17.133Z,59.40
2019-06-07T06:14:50.183Z,91.50
2019-06-07T06:15:41.576Z,98.70
2019-06-07T06:16:02.159Z,90.10
2019-06-07T06:16:32.488Z,69.10
2019-06-07T06:17:07.349Z,64.30
2019-06-07T06:17:41.389Z,63.50
2019-06-07T06:18:14.974Z,61.60
2019-06-07T06:18:51.068Z,61.20
2019-06-07T06:19:23.977Z,60.80
2019-06-07T06:19:57.850Z,60.60
2019-06-07T06:20:33.218Z,60.50
2019-06-07T06:21:18.818Z,60.10
2019-06-07T06:21:41.002Z,59.90
2019-06-07T06:22:14.130Z,59.80
2019-06-07T06:22:48.753Z,59.70
2019-06-07T06:23:21.623Z,59.70
2019-06-07T06:23:58.636Z,59.70
2019-06-07T06:24:33.571Z,59.70
2019-06-07T06:25:31.701Z,59.80
2019-06-07T06:25:50.928Z,59.70
2019-06-07T06:26:19.436Z,59.70
2019-06-07T06:27:00.282Z,59.70
2019-06-07T06:28:03.120Z,59.60
2019-06-07T06:28:13.022Z,59.50
2019-06-07T06:28:46.334Z,59.40
2019-06-07T06:29:18.873Z,59.50
2019-06-07T06:29:59.123Z,59.50
2019-06-07T06:30:35.821Z,59.50
2019-06-07T06:31:09.571Z,59.40
2019-06-07T06:32:36.745Z,59.50
2019-06-07T06:32:57.710Z,59.90
2019-06-07T06:33:34.156Z,59.80
2019-06-07T06:34:01.632Z,59.70
2019-06-07T06:34:34.125Z,59.70
2019-06-07T06:35:07.476Z,59.70
2019-06-07T06:35:42.335Z,59.80
2019-06-07T06:36:14.938Z,59.90
2019-06-07T06:36:50.262Z,59.80
2019-06-07T06:37:22.020Z,59.60
2019-06-07T06:37:54.896Z,59.50
2019-06-07T06:38:27.759Z,59.60
2019-06-07T06:39:00.286Z,59.70
2019-06-07T06:39:33.182Z,59.70
2019-06-07T06:40:06.311Z,59.80
2019-06-07T06:40:44.280Z,60.30
2019-06-07T06:41:16.582Z,59.80
2019-06-07T06:41:58.647Z,60.10
2019-06-07T06:42:23.703Z,60.10
2019-06-07T06:42:58.158Z,60.50
2019-06-07T06:43:31.026Z,60.30
2019-06-07T06:44:04.280Z,60.20
2019-06-07T06:44:40.755Z,59.80
2019-06-07T06:45:13.159Z,59.70
2019-06-07T06:45:49.684Z,59.80
2019-06-07T06:46:38.190Z,59.60
2019-06-07T06:46:58.065Z,59.50
2019-06-07T06:47:29.855Z,59.50
2019-06-07T06:48:02.860Z,59.70
2019-06-07T06:48:36.712Z,59.70
2019-06-07T06:49:09.232Z,60.00
2019-06-07T06:49:43.643Z,60.00
2019-06-07T06:50:16.856Z,60.10
2019-06-07T06:50:52.365Z,60.20
2019-06-07T06:51:24.019Z,60.40
2019-06-07T06:51:56.913Z,60.30
2019-06-07T06:52:29.899Z,59.90
2019-06-07T06:53:02.803Z,59.60
2019-06-07T06:53:35.297Z,59.70
2019-06-07T06:54:08.234Z,59.90
2019-06-07T06:54:46.575Z,59.80
2019-06-07T06:55:15.707Z,59.90
2019-06-07T06:55:51.123Z,59.90
2019-06-07T06:56:23.666Z,60.00
2019-06-07T06:57:18.066Z,60.10
2019-06-07T06:57:30.776Z,60.40
2019-06-07T06:58:03.660Z,60.40
2019-06-07T06:59:21.972Z,60.30
2019-06-07T06:59:37.190Z,60.20
2019-06-07T06:59:45.992Z,60.20
2019-06-07T07:00:41.083Z,60.10
2019-06-07T07:01:05.850Z,60.10
2019-06-07T07:01:30.533Z,60.10
2019-06-07T07:02:03.493Z,59.80
2019-06-07T07:03:27.044Z,59.70
2019-06-07T07:04:06.913Z,59.80
2019-06-07T07:04:23.189Z,60.30
2019-06-07T07:04:55.673Z,61.00
2019-06-07T07:05:28.542Z,60.30
2019-06-07T07:06:24.770Z,60.10
2019-06-07T07:06:38.016Z,60.00
2019-06-07T07:07:10.332Z,60.10
2019-06-07T07:07:45.159Z,60.10
2019-06-07T07:08:17.843Z,60.30
2019-06-07T07:08:53.296Z,60.50
2019-06-07T07:09:25.149Z,63.10
2019-06-07T07:09:59.710Z,62.30
2019-06-07T07:10:40.672Z,61.40
2019-06-07T07:11:13.379Z,61.70
2019-06-07T07:12:01.365Z,61.10
2019-06-07T07:12:22.243Z,61.00
2019-06-07T07:12:54.775Z,61.00
2019-06-07T07:13:27.759Z,61.20
2019-06-07T07:14:00.653Z,61.50
2019-06-07T07:14:33.535Z,61.60
2019-06-07T07:15:06.899Z,61.40
2019-06-07T07:15:42.731Z,61.40
2019-06-07T07:16:14.432Z,61.20
2019-06-07T07:16:50.027Z,61.40
2019-06-07T07:17:46.294Z,61.30
2019-06-07T07:18:07.890Z,61.30
2019-06-07T07:18:30.808Z,61.70
2019-06-07T07:19:05.225Z,61.50
2019-06-07T07:19:38.106Z,61.60
2019-06-07T07:20:10.977Z,61.70
2019-06-07T07:20:45.500Z,61.70
2019-06-07T07:21:20.091Z,61.70
2019-06-07T07:21:55.213Z,62.00
2019-06-07T07:22:27.662Z,62.10
2019-06-07T07:23:00.172Z,62.00
2019-06-07T07:23:33.048Z,61.70
2019-06-07T07:24:21.096Z,61.60
2019-06-07T07:24:41.838Z,61.20
2019-06-07T07:25:14.478Z,60.80
2019-06-07T07:25:55.527Z,60.80
2019-06-07T07:26:21.955Z,60.70
2019-06-07T07:26:58.333Z,60.80
2019-06-07T07:27:29.163Z,60.90
2019-06-07T07:28:02.094Z,60.70
2019-06-07T07:28:34.980Z,60.80
2019-06-07T07:29:09.087Z,60.70
2019-06-07T07:29:45.979Z,60.90
2019-06-07T07:30:36.195Z,61.10
2019-06-07T07:30:55.225Z,61.90
2019-06-07T07:31:27.080Z,68.70
2019-06-07T07:31:59.964Z,66.20
2019-06-07T07:32:32.915Z,63.20
2019-06-07T07:33:07.052Z,62.00
2019-06-07T07:34:31.781Z,60.40
2019-06-07T07:34:51.797Z,60.00
2019-06-07T07:35:23.179Z,60.00
2019-06-07T07:36:22.598Z,59.90
2019-06-07T07:36:39.335Z,59.80
2019-06-07T07:37:04.876Z,60.00
2019-06-07T07:37:37.751Z,60.30
2019-06-07T07:38:10.760Z,60.00
2019-06-07T07:38:48.957Z,59.80
2019-06-07T07:39:17.881Z,59.70
2019-06-07T07:39:54.302Z,59.60
2019-06-07T07:41:15.308Z,59.50
2019-06-07T07:42:04.428Z,59.90
2019-06-07T07:42:21.776Z,60.10
2019-06-07T07:42:56.611Z,60.10
2019-06-07T07:43:29.137Z,60.00
2019-06-07T07:44:07.103Z,59.60
2019-06-07T07:44:36.291Z,59.70
2019-06-07T07:45:09.204Z,59.90
2019-06-07T07:45:42.103Z,60.00
2019-06-07T07:46:31.823Z,59.90
2019-06-07T07:46:53.804Z,60.20
2019-06-07T07:47:25.399Z,60.00
2019-06-07T07:48:14.634Z,59.70
2019-06-07T07:48:32.470Z,60.00
2019-06-07T07:49:05.339Z,60.20
2019-06-07T07:49:38.229Z,60.40
2019-06-07T07:50:11.146Z,60.70
2019-06-07T07:50:47.595Z,60.70
2019-06-07T07:51:18.341Z,60.60
2019-06-07T07:51:55.087Z,60.70
2019-06-07T07:52:25.498Z,60.90
2019-06-07T07:53:00.484Z,60.60
2019-06-07T07:53:48.414Z,60.40
2019-06-07T07:54:10.882Z,60.20
2019-06-07T07:54:41.801Z,60.20
2019-06-07T07:55:14.743Z,60.40
2019-06-07T07:55:50.472Z,60.70
2019-06-07T07:56:21.864Z,60.70
2019-06-07T07:56:56.173Z,60.40
2019-06-07T07:57:29.377Z,59.90
2019-06-07T07:58:02.241Z,59.90
2019-06-07T07:58:34.791Z,60.20
2019-06-07T07:59:08.189Z,60.20
2019-06-07T07:59:47.777Z,59.90
2019-06-07T08:00:49.398Z,60.00
2019-06-07T08:00:59.060Z,60.10
2019-06-07T08:01:24.860Z,59.60
2019-06-07T08:01:58.722Z,59.50
2019-06-07T08:02:31.787Z,59.60
2019-06-07T08:03:04.843Z,59.70
2019-06-07T08:03:37.748Z,60.00
2019-06-07T08:04:10.236Z,60.30
2019-06-07T08:05:13.939Z,60.30
2019-06-07T08:05:25.563Z,60.20
2019-06-07T08:05:54.255Z,59.40
2019-06-07T08:06:26.610Z,59.40
2019-06-07T08:06:59.539Z,59.00
2019-06-07T08:07:32.063Z,59.40
2019-06-07T08:08:07.900Z,58.90
2019-06-07T08:08:39.647Z,58.80
2019-06-07T08:09:12.542Z,58.90
2019-06-07T08:09:47.253Z,58.80
2019-06-07T08:10:19.723Z,58.70
2019-06-07T08:10:56.474Z,58.70
2019-06-07T08:11:26.998Z,58.90
2019-06-07T08:12:01.993Z,59.00
2019-06-07T08:12:55.613Z,58.80
2019-06-07T08:13:24.790Z,59.00
2019-06-07T08:13:43.372Z,59.00
2019-06-07T08:14:16.250Z,59.10
2019-06-07T08:14:51.097Z,59.30
2019-06-07T08:15:23.344Z,59.50
2019-06-07T08:15:59.376Z,59.70
2019-06-07T08:16:30.922Z,59.80
2019-06-07T08:17:03.790Z,59.50
2019-06-07T08:17:36.300Z,59.50
2019-06-07T08:18:09.939Z,59.70
2019-06-07T08:18:44.453Z,59.90
2019-06-07T08:19:17.004Z,59.90
2019-06-07T08:19:51.597Z,60.10
2019-06-07T08:20:24.559Z,60.60
2019-06-07T08:21:15.001Z,61.00
2019-06-07T08:21:31.690Z,61.30
2019-06-07T08:22:04.687Z,61.40
2019-06-07T08:22:37.585Z,61.40
2019-06-07T08:23:10.481Z,61.10
2019-06-07T08:23:42.999Z,61.30
2019-06-07T08:24:16.491Z,61.00
2019-06-07T08:24:50.479Z,60.30
2019-06-07T08:25:23.975Z,60.90
2019-06-07T08:26:00.754Z,60.50
2019-06-07T08:26:31.259Z,60.70
2019-06-07T08:27:24.221Z,60.80
2019-06-07T08:27:38.701Z,60.40
2019-06-07T08:28:11.652Z,59.90
2019-06-07T08:28:44.523Z,59.90
2019-06-07T08:29:17.412Z,59.90
2019-06-07T08:30:10.183Z,59.70
2019-06-07T08:31:06.377Z,59.70
2019-06-07T08:31:33.434Z,59.90
2019-06-07T08:32:06.357Z,60.00
2019-06-07T08:32:39.369Z,60.10
2019-06-07T08:33:26.020Z,60.30
2019-06-07T08:33:47.534Z,60.60
2019-06-07T08:34:20.605Z,60.70
2019-06-07T08:34:59.680Z,61.50
2019-06-07T08:36:03.612Z,60.80
2019-06-07T08:36:11.887Z,60.80
2019-06-07T08:36:42.444Z,61.10
2019-06-07T08:37:11.173Z,61.10
2019-06-07T08:38:15.094Z,61.20
2019-06-07T08:38:27.398Z,61.40
2019-06-07T08:38:57.058Z,61.40
2019-06-07T08:39:27.556Z,61.80
2019-06-07T08:40:01.967Z,61.80
2019-06-07T08:40:34.709Z,62.00
2019-06-07T08:41:11.862Z,61.80
2019-06-07T08:41:53.793Z,61.80
2019-06-07T08:42:22.033Z,61.40
2019-06-07T08:43:10.978Z,61.30
2019-06-07T08:43:25.675Z,61.10
2019-06-07T08:44:00.730Z,61.30
2019-06-07T08:44:33.223Z,61.60
2019-06-07T08:45:09.229Z,61.30
2019-06-07T08:45:41.699Z,61.30
2019-06-07T08:46:14.596Z,61.10
2019-06-07T08:46:47.543Z,60.60
2019-06-07T08:47:21.230Z,60.40
2019-06-07T08:47:58.105Z,60.50
2019-06-07T08:48:30.353Z,60.10
2019-06-07T08:49:04.764Z,84.10
2019-06-07T08:49:37.460Z,74.70
2019-06-07T08:50:10.886Z,64.60
2019-06-07T08:50:43.789Z,63.20
2019-06-07T08:51:16.663Z,62.50
2019-06-07T08:51:52.555Z,62.00
2019-06-07T08:52:23.775Z,62.00
2019-06-07T08:53:03.626Z,61.80
2019-06-07T08:53:30.927Z,62.00
2019-06-07T08:54:21.537Z,62.30
2019-06-07T08:54:39.415Z,62.00
2019-06-07T08:55:11.927Z,61.90
2019-06-07T08:55:44.811Z,61.60
2019-06-07T08:56:20.505Z,61.30
2019-06-07T08:56:57.400Z,61.20
2019-06-07T08:57:27.603Z,61.20
2019-06-07T08:58:04.208Z,61.50
2019-06-07T08:58:34.698Z,61.60
2019-06-07T08:59:11.528Z,62.00
2019-06-07T08:59:42.267Z,62.30
2019-06-07T09:00:42.993Z,62.20
2019-06-07T09:00:49.382Z,61.90
2019-06-07T09:01:22.371Z,62.00
2019-06-07T09:01:59.653Z,61.90
2019-06-07T09:02:29.917Z,62.00
2019-06-07T09:03:05.203Z,61.90
2019-06-07T09:03:37.052Z,61.80
2019-06-07T09:04:11.405Z,61.70
2019-06-07T09:04:44.199Z,61.50
2019-06-07T09:05:18.051Z,61.70
2019-06-07T09:05:52.023Z,61.10
2019-06-07T09:07:01.793Z,60.40
2019-06-07T09:07:18.435Z,60.20
2019-06-07T09:07:34.372Z,60.40
2019-06-07T09:08:29.270Z,60.40
2019-06-07T09:08:47.487Z,60.00
2019-06-07T09:09:20.426Z,60.20
2019-06-07T09:09:58.489Z,60.60
2019-06-07T09:10:27.549Z,60.60
2019-06-07T09:11:05.267Z,60.70
2019-06-07T09:11:35.151Z,60.50
2019-06-07T09:12:11.243Z,60.00
2019-06-07T09:12:47.866Z,60.30
2019-06-07T09:13:20.800Z,60.10
2019-06-07T09:13:54.478Z,60.00
2019-06-07T09:14:29.617Z,59.80
2019-06-07T09:15:14.835Z,60.00
2019-06-07T09:15:37.288Z,60.30
2019-06-07T09:16:10.170Z,60.80
2019-06-07T09:16:42.657Z,61.10
2019-06-07T09:17:15.535Z,61.50
2019-06-07T09:18:41.122Z,62.00
2019-06-07T09:18:59.035Z,62.40
2019-06-07T09:19:32.000Z,62.40
2019-06-07T09:20:32.653Z,62.30
2019-06-07T09:20:43.909Z,62.20
2019-06-07T09:21:16.851Z,62.00
2019-06-07T09:21:49.767Z,62.00
2019-06-07T09:22:22.670Z,62.10
2019-06-07T09:22:59.014Z,61.90
2019-06-07T09:23:29.856Z,61.40
2019-06-07T09:24:08.801Z,61.30
2019-06-07T09:24:37.105Z,61.80
2019-06-07T09:25:20.114Z,61.90
2019-06-07T09:25:56.442Z,61.60
2019-06-07T09:26:19.179Z,60.90
2019-06-07T09:26:52.145Z,61.20
2019-06-07T09:27:25.008Z,61.70
2019-06-07T09:27:59.195Z,62.00
2019-06-07T09:28:32.766Z,62.00
2019-06-07T09:29:09.473Z,62.00
2019-06-07T09:29:40.317Z,61.90
2019-06-07T09:30:18.582Z,61.50
2019-06-07T09:30:47.412Z,61.60
2019-06-07T09:31:20.298Z,62.00
2019-06-07T09:31:53.936Z,62.20
2019-06-07T09:32:26.908Z,62.90
2019-06-07T09:33:01.257Z,63.10
2019-06-07T09:33:34.020Z,63.30
2019-06-07T09:34:13.762Z,62.70
2019-06-07T09:34:41.115Z,62.10
2019-06-07T09:35:17.652Z,62.00
2019-06-07T09:35:48.588Z,62.30
2019-06-07T09:36:21.490Z,63.20
2019-06-07T09:36:53.977Z,63.10
2019-06-07T09:38:21.558Z,63.20
2019-06-07T09:38:35.659Z,63.40
2019-06-07T09:39:12.451Z,63.00
2019-06-07T09:39:43.302Z,62.40
2019-06-07T09:40:26.914Z,62.90
2019-06-07T09:40:52.047Z,63.00
2019-06-07T09:41:46.166Z,62.90
2019-06-07T09:42:01.606Z,62.90
2019-06-07T09:42:33.775Z,62.60
2019-06-07T09:43:54.224Z,62.10
2019-06-07T09:44:19.056Z,63.00
2019-06-07T09:44:24.944Z,62.70
2019-06-07T09:44:50.162Z,62.30
2019-06-07T09:45:22.660Z,62.50
2019-06-07T09:45:57.972Z,62.70
2019-06-07T09:46:30.201Z,63.00
2019-06-07T09:47:22.472Z,63.00
2019-06-07T09:47:37.420Z,63.10
2019-06-07T09:48:16.022Z,63.10
2019-06-07T09:49:10.474Z,62.70
2019-06-07T09:49:31.354Z,61.90
2019-06-07T09:49:53.779Z,62.10
2019-06-07T09:50:26.702Z,62.30
2019-06-07T09:51:02.014Z,62.70
2019-06-07T09:51:33.790Z,62.60
2019-06-07T09:52:09.072Z,63.20
2019-06-07T09:52:58.038Z,63.90
2019-06-07T09:53:22.682Z,63.90
2019-06-07T09:53:50.534Z,63.50
2019-06-07T09:55:04.127Z,63.30
2019-06-07T09:55:19.604Z,63.30
2019-06-07T09:55:32.266Z,63.50
2019-06-07T09:56:08.751Z,64.30
2019-06-07T09:56:39.924Z,62.80
2019-06-07T09:57:17.336Z,62.70
2019-06-07T09:57:47.410Z,63.30
2019-06-07T09:58:55.523Z,63.10
2019-06-07T09:59:28.391Z,62.80
2019-06-07T10:00:10.424Z,62.80
2019-06-07T10:00:41.730Z,63.70
2019-06-07T10:01:13.525Z,63.70
2019-06-07T10:01:44.802Z,63.30
2019-06-07T10:02:17.669Z,63.00
2019-06-07T10:02:51.782Z,63.20
2019-06-07T10:03:24.668Z,63.30
2019-06-07T10:04:02.336Z,62.80
2019-06-07T10:04:32.232Z,62.20
2019-06-07T10:05:12.379Z,62.60
2019-06-07T10:05:39.996Z,62.40
2019-06-07T10:06:13.877Z,62.60
2019-06-07T10:06:47.106Z,62.60
2019-06-07T10:07:31.162Z,63.10
2019-06-07T10:08:09.424Z,62.90
2019-06-07T10:10:46.806Z,62.40
2019-06-07T10:11:19.683Z,63.00
2019-06-07T10:11:55.780Z,64.00
2019-06-07T10:12:29.379Z,63.70
2019-06-07T10:13:03.832Z,62.20
2019-06-07T10:13:40.267Z,62.30
2019-06-07T10:14:15.392Z,61.40
2019-06-07T10:14:48.467Z,60.70
2019-06-07T10:15:21.460Z,62.10
2019-06-07T10:15:54.437Z,61.40
2019-06-07T10:16:32.923Z,61.00
2019-06-07T10:17:05.075Z,61.60
2019-06-07T10:17:38.136Z,61.90
2019-06-07T10:18:10.727Z,62.00
2019-06-07T10:18:43.721Z,61.60
2019-06-07T10:19:16.806Z,61.00
2019-06-07T10:19:49.896Z,61.30
2019-06-07T10:20:22.930Z,61.40
2019-06-07T10:20:57.104Z,61.50
2019-06-07T10:21:32.492Z,61.80
2019-06-07T10:22:05.739Z,61.80
2019-06-07T10:22:38.831Z,61.40
2019-06-07T10:23:13.390Z,61.50
2019-06-07T10:23:46.272Z,61.10
2019-06-07T10:24:18.764Z,60.70
2019-06-07T10:24:51.648Z,60.50
2019-06-07T10:25:24.602Z,60.00
2019-06-07T10:25:57.483Z,59.90
2019-06-07T10:26:29.978Z,60.50
2019-06-07T10:27:04.007Z,60.80
2019-06-07T10:27:37.024Z,60.60
2019-06-07T10:28:10.259Z,60.80
2019-06-07T10:28:42.895Z,60.80
2019-06-07T10:29:15.760Z,61.10
2019-06-07T10:29:48.640Z,61.50
2019-06-07T10:30:21.635Z,61.00
2019-06-07T10:30:54.139Z,61.40
2019-06-07T10:31:27.015Z,61.50
2019-06-07T10:32:00.123Z,61.50
2019-06-07T10:32:33.267Z,61.20
2019-06-07T10:33:06.873Z,60.90
2019-06-07T10:33:41.205Z,60.60
2019-06-07T10:34:14.154Z,60.80
2019-06-07T10:34:46.753Z,60.50
2019-06-07T10:35:19.679Z,60.90
2019-06-07T10:35:52.562Z,61.40
2019-06-07T10:36:25.503Z,61.60
2019-06-07T10:36:58.088Z,61.40
2019-06-07T10:37:32.085Z,61.30
2019-06-07T10:38:04.993Z,60.70
2019-06-07T10:38:37.855Z,60.80
2019-06-07T10:39:11.372Z,61.00
2019-06-07T10:39:48.474Z,61.20
2019-06-07T10:40:19.074Z,60.50
2019-06-07T10:40:51.692Z,60.60
2019-06-07T10:41:24.659Z,60.80
2019-06-07T10:41:57.627Z,60.90
2019-06-07T10:42:30.569Z,61.70
2019-06-07T10:43:03.129Z,61.80
2019-06-07T10:43:36.023Z,61.80
2019-06-07T10:44:09.381Z,61.60
2019-06-07T10:44:42.348Z,61.90
2019-06-07T10:45:14.908Z,62.40
2019-06-07T10:45:47.893Z,61.80
2019-06-07T10:46:20.862Z,62.60
2019-06-07T10:46:53.775Z,61.40
2019-06-07T10:47:26.405Z,61.40
2019-06-07T10:47:59.406Z,61.30
2019-06-07T10:48:32.291Z,61.40
2019-06-07T10:49:06.118Z,61.50
2019-06-07T10:49:38.742Z,61.30
2019-06-07T10:50:12.256Z,61.00
2019-06-07T10:50:45.157Z,61.00
2019-06-07T10:51:18.023Z,61.20
2019-06-07T10:51:50.547Z,61.40
2019-06-07T10:52:23.431Z,61.30
2019-06-07T10:52:56.384Z,61.30
2019-06-07T10:53:29.308Z,60.90
2019-06-07T10:54:10.958Z,60.00
2019-06-07T10:54:36.484Z,60.50
2019-06-07T10:55:10.559Z,60.60
2019-06-07T10:55:43.196Z,61.90
2019-06-07T10:56:16.128Z,62.00
2019-06-07T10:56:49.000Z,62.10
2019-06-07T10:57:22.177Z,61.90
2019-06-07T10:57:54.767Z,61.60
2019-06-07T10:58:27.708Z,61.60
2019-06-07T10:59:00.597Z,61.70
2019-06-07T10:59:35.289Z,61.20
2019-06-07T11:00:11.711Z,60.70
2019-06-07T11:00:48.960Z,60.30
2019-06-07T11:01:18.872Z,60.40
2019-06-07T11:01:51.743Z,60.50
2019-06-07T11:02:24.619Z,60.70
2019-06-07T11:02:57.498Z,61.10
2019-06-07T11:03:30.032Z,61.10
2019-06-07T11:04:03.376Z,61.20
2019-06-07T11:04:38.043Z,62.60
2019-06-07T11:05:12.315Z,62.20
2019-06-07T11:05:45.500Z,61.90
2019-06-07T11:06:18.481Z,61.80
2019-06-07T11:06:53.949Z,62.00
2019-06-07T11:07:26.714Z,61.50
2019-06-07T11:08:00.697Z,60.80
2019-06-07T11:08:33.719Z,61.00
2019-06-07T11:09:07.905Z,61.30
2019-06-07T11:09:45.021Z,61.30
2019-06-07T11:10:19.965Z,61.50
2019-06-07T11:10:52.205Z,61.50
2019-06-07T11:11:25.230Z,61.80
2019-06-07T11:11:58.214Z,61.70
2019-06-07T11:12:31.156Z,61.60
2019-06-07T11:13:04.092Z,62.50
2019-06-07T11:13:37.038Z,61.70
2019-06-07T11:14:10.576Z,60.80
2019-06-07T11:14:43.704Z,60.40
2019-06-07T11:15:16.280Z,60.60
2019-06-07T11:15:49.217Z,61.00
2019-06-07T11:16:22.248Z,60.90
2019-06-07T11:16:55.216Z,60.70
2019-06-07T11:17:30.540Z,61.00
2019-06-07T11:18:10.278Z,61.30
2019-06-07T11:18:44.555Z,61.50
2019-06-07T11:19:18.464Z,61.20
2019-06-07T11:19:51.661Z,61.50
2019-06-07T11:20:24.566Z,61.70
2019-06-07T11:20:57.581Z,61.60
2019-06-07T11:21:30.121Z,61.30
2019-06-07T11:22:03.070Z,61.40
2019-06-07T11:22:36.021Z,61.80
2019-06-07T11:23:10.064Z,62.20
2019-06-07T11:23:42.684Z,62.40
2019-06-07T11:24:18.715Z,62.60
2019-06-07T11:24:50.256Z,61.70
2019-06-07T11:25:23.225Z,61.60
2019-06-07T11:25:55.762Z,61.30
2019-06-07T11:26:28.793Z,60.90
2019-06-07T11:27:01.787Z,61.20
2019-06-07T11:27:34.647Z,61.30
2019-06-07T11:28:08.372Z,61.10
2019-06-07T11:28:41.429Z,60.90
2019-06-07T11:29:15.096Z,60.70
2019-06-07T11:29:49.027Z,61.00
2019-06-07T11:30:21.596Z,60.60
2019-06-07T11:30:54.606Z,60.30
2019-06-07T11:31:27.544Z,60.70
2019-06-07T11:32:00.410Z,60.40
2019-06-07T11:32:32.911Z,60.80
2019-06-07T11:33:06.389Z,60.50
2019-06-07T11:33:39.521Z,60.10
2019-06-07T11:34:12.573Z,60.00
2019-06-07T11:34:45.114Z,60.20
2019-06-07T11:35:19.111Z,60.80
2019-06-07T11:35:52.726Z,59.70
2019-06-07T11:36:25.603Z,60.00
2019-06-07T11:36:58.277Z,60.40
2019-06-07T11:37:32.163Z,60.60
2019-06-07T11:38:06.289Z,62.30
2019-06-07T11:38:39.250Z,61.30
2019-06-07T11:39:12.812Z,61.10
2019-06-07T11:39:45.798Z,60.00
2019-06-07T11:40:34.348Z,60.40
2019-06-07T11:40:52.957Z,60.90
2019-06-07T11:41:25.828Z,60.80
2019-06-07T11:41:58.819Z,60.60
2019-06-07T11:42:32.128Z,60.00
2019-06-07T11:43:04.654Z,60.10
2019-06-07T11:43:37.533Z,60.30
2019-06-07T11:44:10.992Z,60.10
2019-06-07T11:44:56.389Z,60.30
2019-06-07T11:45:18.363Z,60.50
2019-06-07T11:45:51.323Z,60.30
2019-06-07T11:46:24.213Z,61.20
2019-06-07T11:46:57.088Z,61.30
2019-06-07T11:47:32.627Z,61.40
2019-06-07T11:48:05.594Z,61.50
2019-06-07T11:48:38.455Z,61.70
2019-06-07T11:49:12.863Z,61.70
2019-06-07T11:49:45.627Z,61.70
2019-06-07T11:50:18.509Z,61.70
2019-06-07T11:50:51.440Z,61.40
2019-06-07T11:51:24.314Z,60.70
2019-06-07T11:51:56.822Z,60.60
2019-06-07T11:52:29.717Z,60.50
2019-06-07T11:53:02.592Z,60.70
2019-06-07T11:53:35.545Z,60.80
2019-06-07T11:54:09.626Z,60.30
2019-06-07T11:54:42.664Z,60.30
2019-06-07T11:55:16.034Z,60.30
2019-06-07T11:55:48.987Z,60.50
2019-06-07T11:56:21.610Z,60.60
2019-06-07T11:56:54.520Z,60.50
2019-06-07T11:57:27.442Z,60.20
2019-06-07T11:58:00.336Z,60.50
2019-06-07T11:58:32.902Z,60.50
2019-06-07T11:59:06.982Z,60.60
2019-06-07T11:59:39.931Z,60.60
2019-06-07T12:00:16.340Z,61.10
2019-06-07T12:00:49.498Z,61.10
2019-06-07T12:01:22.469Z,61.40
2019-06-07T12:01:55.412Z,62.30
2019-06-07T12:02:27.900Z,61.10
2019-06-07T12:03:00.764Z,61.80
2019-06-07T12:03:33.641Z,61.40
2019-06-07T12:04:07.452Z,61.20
2019-06-07T12:04:40.113Z,61.50
2019-06-07T12:05:16.614Z,61.90
2019-06-07T12:05:47.636Z,60.50
2019-06-07T12:06:23.731Z,60.20
2019-06-07T12:06:56.339Z,60.10
2019-06-07T12:07:29.267Z,60.30
2019-06-07T12:08:04.435Z,60.00
2019-06-07T12:08:37.333Z,59.80
2019-06-07T12:09:10.657Z,59.60
2019-06-07T12:09:55.932Z,59.80
2019-06-07T12:10:22.481Z,59.60
2019-06-07T12:10:52.455Z,60.10
2019-06-07T12:11:25.342Z,60.10
2019-06-07T12:11:58.278Z,60.00
2019-06-07T12:12:31.299Z,59.80
2019-06-07T12:13:03.954Z,59.80
2019-06-07T12:13:36.907Z,58.90
2019-06-07T12:14:10.946Z,59.20
2019-06-07T12:14:43.924Z,59.40
2019-06-07T12:15:17.338Z,59.50
2019-06-07T12:15:50.363Z,58.70
2019-06-07T12:16:23.223Z,58.50
2019-06-07T12:16:56.098Z,58.80
2019-06-07T12:17:28.595Z,59.00
2019-06-07T12:18:01.490Z,59.00
2019-06-07T12:18:34.364Z,58.30
2019-06-07T12:19:07.258Z,58.50
2019-06-07T12:19:40.693Z,58.60
2019-06-07T12:20:16.345Z,58.70
2019-06-07T12:20:52.467Z,58.30
2019-06-07T12:21:22.518Z,58.00
2019-06-07T12:21:55.459Z,58.10
2019-06-07T12:22:28.342Z,58.80
2019-06-07T12:23:01.222Z,58.90
2019-06-07T12:23:33.715Z,58.60
2019-06-07T12:24:06.662Z,58.60
2019-06-07T12:24:39.560Z,58.90